Date,TemperatureHighF,TemperatureAvgF,TemperatureLowF,DewpointHighF,DewpointAvgF,DewpointLowF,HumidityHigh,HumidityAvg,HumidityLow,PressureMaxIn,PressureMinIn,WindSpeedMaxMPH,WindSpeedAvgMPH,GustSpeedMaxMPH,PrecipitationSumIn
2012-1-1,68,59,49,62,54,43,100,84,54,30.10,29.91,12,4,17,0.02
2012-1-2,62,51,43,62,39,24,100,65,35,30.01,29.86,26,15,30,0.01
2012-1-3,44,36,32,29,22,16,67,56,44,30.25,29.92,36,22,42,0.00
2012-1-4,46,39,32,34,25,16,74,58,44,30.33,30.10,17,4,19,0.00
2012-1-5,60,49,42,48,36,22,84,60,43,30.10,29.95,18,7,20,0.00
2012-1-6,64,54,45,55,47,38,95,76,52,30.07,29.96,9,3,14,0.00
2012-1-7,71,59,50,58,54,47,97,85,59,30.02,29.92,12,7,17,0.00
2012-1-8,71,61,54,61,58,54,100,92,69,30.13,30.01,9,4,13,0.00
2012-1-9,74,64,58,62,60,58,100,89,59,30.10,29.96,15,5,19,0.00
2012-1-10,69,60,58,63,58,56,100,94,74,29.98,29.85,11,4,14,0.00
2012-1-11,67,63,57,67,60,-100,100,97,80,29.85,29.50,17,6,25,0.07
2012-1-12,65,57,48,62,53,47,97,88,72,29.73,29.58,18,9,27,0.01
2012-1-13,62,45,37,56,30,24,79,56,38,30.04,29.62,33,14,42,0.00
2012-1-14,52,44,35,33,28,22,77,55,31,30.19,30.04,24,13,29,0.00
2012-1-15,54,48,43,41,35,30,84,60,49,30.41,30.08,22,10,30,0.00
2012-1-16,57,51,45,53,45,40,100,79,62,30.47,30.26,7,2,12,0.00
2012-1-17,68,61,53,61,57,53,100,90,70,30.26,29.95,10,4,20,0.00
2012-1-18,62,60,58,62,60,58,100,100,96,29.95,29.85,12,6,17,0.08
2012-1-19,56,48,40,51,45,37,100,89,74,30.10,29.93,7,2,10,0.00
2012-1-20,64,57,49,63,54,43,100,89,49,30.08,29.99,10,3,15,0.01
2012-1-21,65,62,58,64,61,58,100,94,83,29.99,29.85,17,8,29,0.28
2012-1-22,59,53,48,59,37,-100,100,90,100,30.17,29.94,15,5,24,0.01
2012-1-23,65,56,48,65,52,-100,100,97,100,30.14,29.94,7,2,10,0.01
2012-1-24,70,64,57,68,60,-100,100,96,92,30.11,29.95,8,4,16,0.01
2012-1-25,66,58,52,63,57,52,100,97,83,30.19,30.06,6,2,11,0.00
2012-1-26,72,64,58,69,35,-100,100,81,88,30.06,29.77,9,3,13,0.00
2012-1-27,68,64,55,68,59,49,100,85,60,29.94,29.63,29,12,34,0.07
2012-1-28,66,56,47,51,47,40,100,73,42,30.07,29.93,20,7,24,0.00
2012-1-29,59,52,47,48,38,28,82,61,36,30.27,30.07,19,6,20,0.00
2012-1-30,65,51,43,48,37,26,84,60,24,30.37,30.24,13,4,16,0.00
2012-1-31,67,55,46,54,49,36,100,84,38,30.35,30.21,6,2,10,0.00
2012-2-1,70,62,53,62,58,52,100,88,66,30.22,30.03,10,2,17,0.00
2012-2-2,72,65,58,63,60,52,100,83,58,30.14,29.95,21,8,25,0.00
2012-2-3,60,57,54,56,50,40,97,79,57,30.31,30.14,18,7,24,0.00
2012-2-4,71,62,56,63,60,56,100,92,73,30.23,29.97,9,3,13,0.00
2012-2-5,77,66,54,67,63,54,100,92,65,30.03,29.83,18,8,24,0.00
2012-2-6,58,53,50,54,50,47,100,91,83,30.11,30.00,19,9,24,0.00
2012-2-7,59,53,50,52,50,47,100,90,76,30.05,29.99,18,8,20,0.00
2012-2-8,66,55,48,52,47,43,97,76,45,30.05,29.93,14,4,15,0.00
2012-2-9,53,50,45,45,42,37,85,74,58,30.17,30.03,11,5,15,0.00
2012-2-10,60,56,52,59,53,45,100,91,74,30.10,29.79,11,3,13,0.02
2012-2-11,56,51,35,54,42,21,100,73,48,30.03,29.66,41,21,47,0.01
2012-2-12,46,37,29,26,20,16,67,51,34,30.21,30.02,35,17,41,0.00
2012-2-13,51,41,35,30,26,19,75,57,38,30.20,30.11,10,3,13,0.00
2012-2-14,58,52,47,52,47,41,98,84,70,30.06,29.94,4,1,0,0.02
2012-2-15,63,57,54,58,56,54,100,97,85,30.13,29.98,8,2,0,0.01
2012-2-16,65,65,65,65,65,65,100,100,100,29.89,29.89,3,3,3,0.00
2012-2-17,64,59,55,61,51,-100,100,91,75,29.99,29.89,9,3,9,0.00
2012-2-18,66,59,52,61,55,-100,100,91,69,29.97,29.76,13,2,15,0.41
2012-2-19,68,60,47,68,54,-100,100,95,91,29.78,29.45,30,10,32,1.94
2012-2-20,56,48,41,47,42,38,100,81,54,30.20,29.74,30,12,33,0.00
2012-2-21,62,55,46,60,52,42,100,90,78,30.20,29.97,7,2,13,0.00
2012-2-22,70,61,54,63,58,54,100,92,61,29.98,29.62,13,7,21,0.00
2012-2-23,74,67,63,69,66,63,100,97,85,29.69,29.60,15,10,22,0.00
2012-2-24,71,67,60,70,66,47,100,97,65,29.81,29.58,25,13,28,0.04
2012-2-25,60,54,49,49,36,25,69,51,31,30.19,29.81,29,16,32,0.00
2012-2-26,56,50,44,52,41,27,89,71,40,30.37,30.19,12,6,20,0.00
2012-2-27,64,61,55,64,60,52,100,99,87,30.29,30.19,13,2,15,0.18
2012-2-28,66,60,56,59,57,50,100,91,57,30.26,30.17,16,7,19,0.00
2012-2-29,74,66,58,71,65,58,100,98,87,30.18,29.88,17,6,27,0.00
2012-3-1,70,66,64,69,66,64,100,100,95,29.91,29.77,13,7,20,0.07
2012-3-2,77,67,63,72,67,63,100,99,81,29.88,29.72,14,8,21,0.00
2012-3-3,69,64,60,69,64,60,100,100,99,29.73,29.60,23,6,31,1.33
2012-3-4,60,55,48,60,46,30,100,76,41,30.04,29.51,35,19,41,0.86
2012-3-5,67,58,48,49,39,32,65,51,36,30.35,30.01,32,13,37,0.00
2012-3-6,57,52,44,52,42,31,100,72,49,30.52,30.35,13,8,21,0.00
2012-3-7,71,60,52,63,58,52,100,94,72,30.46,30.31,9,3,13,0.00
2012-3-8,74,65,60,68,64,60,100,97,73,30.31,30.08,9,2,17,0.06
2012-3-9,74,66,60,70,65,51,100,95,73,30.14,29.99,18,6,20,0.02
2012-3-10,63,57,50,54,50,43,100,79,53,30.33,30.14,13,8,20,0.01
2012-3-11,64,59,55,60,56,52,100,87,75,30.39,30.30,16,8,19,0.00
2012-3-12,71,64,58,63,60,58,100,90,68,30.33,30.18,9,3,12,0.01
2012-3-13,75,66,61,66,63,61,100,91,68,30.20,30.08,12,2,17,0.01
2012-3-14,78,68,61,70,65,61,100,92,75,30.15,30.07,10,3,18,0.01
2012-3-15,78,69,61,71,66,61,100,93,69,30.20,30.10,11,2,17,0.00
2012-3-16,77,70,65,71,67,62,100,90,73,30.16,30.04,13,5,20,0.01
2012-3-17,78,70,63,70,66,62,100,89,66,30.14,30.04,10,4,17,0.00
2012-3-18,80,69,64,70,66,64,100,93,67,30.18,30.08,8,2,16,0.13
2012-3-19,78,69,64,72,68,64,100,95,76,30.12,30.03,9,2,13,0.01
2012-3-20,75,69,66,72,67,-100,100,97,86,30.11,30.01,10,2,14,0.02
2012-3-21,77,70,67,72,69,67,100,97,78,30.16,30.08,11,2,0,0.02
2012-3-22,75,71,68,73,63,-100,100,93,88,30.15,30.06,10,2,0,0.01
2012-3-23,80,72,69,74,71,69,100,95,77,30.06,29.89,10,2,17,0.01
2012-3-24,78,70,66,75,70,66,100,99,85,29.93,29.68,31,4,33,0.27
2012-3-25,71,64,60,69,61,56,100,90,65,29.71,29.60,31,13,35,0.20
2012-3-26,79,67,60,67,63,59,100,87,52,29.90,29.70,19,12,22,0.00
2012-3-27,67,63,60,67,56,46,100,78,53,30.18,29.90,17,9,26,0.00
2012-3-28,76,69,62,71,65,56,100,88,74,30.17,29.91,14,7,25,0.00
2012-3-29,85,74,66,70,67,60,100,81,47,29.92,29.76,23,9,27,0.00
2012-3-30,83,73,66,71,66,62,98,80,55,29.91,29.81,12,6,20,0.00
2012-3-31,78,72,68,72,70,68,100,95,72,29.84,29.67,19,6,27,0.05
2012-4-1,72,68,65,69,67,65,100,96,85,29.78,29.65,12,7,16,0.01
2012-4-2,91,75,69,75,70,66,100,85,47,29.80,29.63,22,10,29,0.06
2012-4-3,75,72,69,73,70,64,100,95,83,29.91,29.80,9,6,17,0.00
2012-4-4,81,74,66,73,71,66,100,91,70,29.81,29.59,27,6,28,0.01
2012-4-5,82,74,67,74,70,67,100,89,70,29.63,29.52,28,8,31,0.10
2012-4-6,69,59,52,69,55,47,100,89,62,29.97,29.58,19,10,27,0.28
2012-4-7,69,61,54,53,46,35,93,61,32,30.14,29.97,8,4,13,0.00
2012-4-8,76,66,57,62,56,51,92,72,49,30.10,29.92,14,8,24,0.00
2012-4-9,74,68,62,64,56,46,88,68,41,29.99,29.85,18,8,19,0.00
2012-4-10,75,66,59,65,59,49,100,78,49,29.94,29.78,13,9,21,0.00
2012-4-11,70,65,59,60,48,35,79,55,34,29.94,29.78,23,12,26,0.00
2012-4-12,64,56,47,48,40,33,74,57,39,30.11,29.94,16,7,27,0.00
2012-4-13,68,62,56,53,48,43,82,61,44,30.16,30.04,10,3,18,0.00
2012-4-14,74,67,61,65,60,49,91,77,59,30.22,30.12,11,4,17,0.00
2012-4-15,76,70,66,67,64,61,99,83,63,30.17,30.10,11,5,20,0.00
2012-4-16,79,72,66,70,65,58,100,82,51,30.15,30.06,14,5,19,0.00
2012-4-17,81,73,67,71,68,65,100,87,65,30.11,29.98,11,5,20,0.00
2012-4-18,78,72,67,71,69,67,100,91,74,30.00,29.88,12,4,17,0.09
2012-4-19,72,68,66,72,67,65,100,99,92,29.93,29.85,13,5,16,0.04
2012-4-20,74,68,63,70,67,63,100,97,86,29.88,29.75,11,5,14,0.00
2012-4-21,77,73,68,76,62,-100,100,91,83,29.76,29.56,11,4,13,0.01
2012-4-22,71,68,61,71,62,-100,100,96,93,29.56,29.30,27,10,30,0.55
2012-4-23,63,58,52,60,50,43,100,76,50,29.69,29.48,27,18,32,0.00
2012-4-24,68,59,48,51,44,34,79,59,34,29.78,29.68,30,14,40,0.00
2012-4-25,77,67,57,67,56,45,89,69,49,29.90,29.78,16,8,24,0.00
2012-4-26,79,72,66,70,66,60,92,80,54,29.88,29.79,14,10,24,0.00
2012-4-27,82,74,68,71,68,64,94,82,63,29.95,29.84,13,8,24,0.00
2012-4-28,83,75,70,74,71,67,100,87,62,30.00,29.92,11,6,19,0.00
2012-4-29,81,75,69,75,72,69,100,93,80,30.05,29.98,11,4,18,0.00
2012-4-30,79,75,72,77,64,-100,100,92,90,30.11,30.03,10,4,16,0.01
2012-5-1,81,76,72,74,70,-100,100,89,71,30.09,30.00,9,4,18,0.00
2012-5-2,83,76,71,75,73,71,100,92,73,30.08,29.98,10,4,19,0.00
2012-5-3,84,76,72,75,72,70,100,89,69,30.06,29.99,11,4,18,0.00
2012-5-4,83,75,71,76,74,71,100,95,72,30.01,29.87,12,4,16,0.00
2012-5-5,92,80,74,78,75,72,100,86,55,29.89,29.70,21,8,25,0.01
2012-5-6,83,76,73,76,73,71,100,91,70,29.86,29.72,15,7,19,0.01
2012-5-7,79,74,71,74,72,70,100,92,81,29.91,29.82,13,7,21,0.00
2012-5-8,79,75,71,74,71,68,97,86,74,29.87,29.76,11,6,16,0.00
2012-5-9,80,74,68,77,73,68,100,97,87,29.79,29.57,29,4,33,0.76
2012-5-10,80,71,65,70,63,54,100,77,43,29.84,29.61,24,9,26,0.01
2012-5-11,77,72,68,67,64,61,96,76,61,30.11,29.84,13,4,19,0.00
2012-5-12,78,73,69,70,63,56,92,72,51,30.22,30.09,11,5,16,0.00
2012-5-13,76,72,68,72,69,65,100,88,76,30.13,30.00,10,5,17,0.25
2012-5-14,82,75,71,75,72,65,100,90,74,30.01,29.84,11,4,19,0.01
2012-5-15,82,77,72,76,75,71,100,93,79,29.90,29.81,12,5,20,0.00
2012-5-16,83,77,74,77,75,74,100,94,76,29.88,29.78,9,4,16,0.00
2012-5-17,78,72,66,74,70,65,100,94,74,29.85,29.77,18,4,24,2.86
2012-5-18,76,70,68,71,67,59,100,90,70,29.92,29.80,16,10,20,0.02
2012-5-19,72,68,63,60,56,48,80,64,47,29.96,29.88,23,14,28,0.02
2012-5-20,78,70,63,71,64,56,100,81,64,29.94,29.85,18,10,25,0.10
2012-5-21,82,73,68,74,71,68,100,92,71,29.89,29.78,13,4,16,0.00
2012-5-22,82,76,70,76,73,67,100,92,78,29.81,29.70,10,4,19,0.00
2012-5-23,83,76,69,76,72,66,100,88,72,29.82,29.71,12,5,21,0.00
2012-5-24,84,78,73,79,76,73,100,95,82,29.90,29.81,11,3,18,0.00
2012-5-25,84,77,73,78,75,73,100,94,72,29.97,29.87,16,6,18,0.01
2012-5-26,87,79,74,76,74,70,100,85,59,29.97,29.88,19,10,22,0.00
2012-5-27,83,78,74,79,76,72,100,94,84,29.91,29.84,22,12,29,0.00
2012-5-28,83,79,75,80,78,73,100,94,85,29.91,29.85,15,11,21,0.05
2012-5-29,81,78,73,78,77,72,100,97,87,29.88,29.61,21,9,28,0.46
2012-5-30,86,78,72,78,74,69,100,88,64,29.76,29.44,31,14,37,0.39
2012-5-31,85,79,72,78,75,69,100,88,74,29.79,29.73,8,3,13,0.00
2012-6-1,84,79,74,79,77,73,100,94,77,29.79,29.68,14,6,25,0.01
2012-6-2,84,78,73,78,70,60,100,78,50,29.81,29.66,19,10,22,0.00
2012-6-3,85,76,65,73,64,58,90,69,44,29.88,29.78,19,8,24,0.00
2012-6-4,80,77,73,78,74,71,100,90,77,29.78,29.61,24,10,28,0.02
2012-6-5,77,72,69,73,69,65,100,90,69,29.76,29.59,26,8,27,0.02
2012-6-6,75,72,69,72,70,68,100,95,81,29.87,29.70,16,7,25,1.75
2012-6-7,79,74,67,71,68,65,98,82,66,29.94,29.86,11,5,16,0.00
2012-6-8,81,76,71,70,68,66,91,77,64,29.95,29.88,11,4,17,0.00
2012-6-9,82,77,72,75,71,68,98,81,66,30.00,29.92,7,3,12,0.00
2012-6-10,82,78,76,79,75,70,100,90,81,30.05,29.93,10,6,17,0.11
2012-6-11,83,77,70,78,75,70,100,95,86,30.05,29.97,27,6,30,0.68
2012-6-12,81,77,73,80,77,73,100,98,87,29.97,29.79,14,6,25,0.01
2012-6-13,85,77,72,79,76,71,100,95,71,29.85,29.77,20,4,20,0.08
2012-6-14,85,78,73,75,72,65,100,84,55,29.98,29.83,11,5,18,0.00
2012-6-15,82,75,68,74,69,60,97,82,49,30.04,29.95,13,8,19,0.00
2012-6-16,80,74,67,71,68,62,94,80,55,30.10,30.00,12,6,18,0.00
2012-6-17,82,75,70,71,67,63,95,78,54,30.05,29.92,9,4,15,0.00
2012-6-18,82,76,70,74,70,67,100,83,62,30.02,29.94,8,3,14,0.00
2012-6-19,84,79,73,76,74,70,100,85,66,30.07,30.00,7,2,11,0.00
2012-6-20,84,79,74,76,74,72,98,85,69,30.07,29.99,8,3,16,0.00
2012-6-21,84,79,75,74,73,66,96,81,56,29.99,29.86,7,2,16,0.00
2012-6-22,84,79,73,76,72,69,100,81,62,29.88,29.79,8,3,17,0.00
2012-6-23,88,81,75,80,78,75,100,89,73,29.91,29.79,8,3,13,0.00
2012-6-24,87,81,77,81,79,76,100,92,76,29.91,29.81,11,3,18,0.00
2012-6-25,81,78,75,79,77,75,100,97,89,29.83,29.59,11,5,18,0.26
2012-6-26,77,74,69,77,70,-100,100,94,81,29.69,29.58,15,9,25,0.10
2012-6-27,83,76,67,71,66,58,91,73,46,29.88,29.68,14,8,24,0.00
2012-6-28,90,79,70,75,71,64,100,78,46,29.96,29.86,10,4,16,0.00
2012-6-29,93,84,78,82,78,72,98,83,63,29.86,29.69,13,7,18,0.00
2012-6-30,92,84,80,84,82,80,100,93,73,29.81,29.71,10,5,19,0.00
2012-7-1,91,84,79,86,81,69,100,90,63,29.98,29.79,27,8,35,0.00
2012-7-2,91,83,77,81,75,70,97,78,64,29.99,29.86,27,7,31,0.00
2012-7-3,91,84,79,84,80,77,100,88,69,29.92,29.84,11,5,19,0.00
2012-7-4,94,84,77,81,78,73,100,84,54,29.95,29.84,10,5,18,0.00
2012-7-5,91,84,79,83,81,78,100,91,68,29.90,29.79,11,6,20,0.00
2012-7-6,90,84,78,83,80,75,100,89,69,29.91,29.81,13,6,25,0.00
2012-7-7,91,85,79,83,80,76,100,87,64,29.96,29.88,12,6,17,0.00
2012-7-8,92,85,80,83,80,76,98,85,65,29.95,29.81,11,7,20,0.00
2012-7-9,95,86,82,83,80,75,100,84,55,29.88,29.78,14,9,26,0.00
2012-7-10,89,83,78,83,80,75,100,89,71,29.94,29.81,21,6,27,0.00
2012-7-11,88,80,75,82,79,74,100,96,77,29.97,29.89,23,3,27,0.04
2012-7-12,88,82,73,82,79,73,100,92,77,30.02,29.94,11,4,17,1.48
2012-7-13,87,83,76,82,80,76,100,90,79,30.06,29.97,11,5,21,0.01
2012-7-14,88,84,80,81,79,77,96,86,75,30.10,30.01,10,4,16,0.00
2012-7-15,87,83,79,80,78,75,97,86,72,30.09,29.99,11,4,15,0.00
2012-7-16,88,83,79,80,78,76,100,85,71,30.01,29.86,7,2,13,0.00
2012-7-17,90,83,78,81,79,74,100,89,71,29.91,29.83,13,4,18,0.00
2012-7-18,88,82,77,81,79,76,100,91,74,29.95,29.87,11,5,19,0.00
2012-7-19,87,82,79,83,79,76,100,90,77,30.00,29.91,15,7,22,0.18
2012-7-20,88,83,78,82,78,74,100,87,72,29.95,29.86,16,8,27,0.00
2012-7-21,88,83,78,81,77,72,94,81,71,30.01,29.92,13,6,21,0.00
2012-7-22,89,84,81,83,81,78,100,89,78,30.09,29.99,9,4,18,0.00
2012-7-23,89,84,79,82,79,77,99,87,74,30.10,29.99,11,4,19,0.00
2012-7-24,91,84,75,83,79,75,100,87,67,29.99,29.80,31,8,41,0.10
2012-7-25,90,82,74,83,80,74,100,94,79,29.87,29.78,20,7,22,0.00
2012-7-26,93,86,82,85,83,81,100,91,73,29.84,29.77,12,6,21,0.00
2012-7-27,92,85,80,85,81,74,100,89,74,29.87,29.78,19,6,28,0.00
2012-7-28,89,83,75,84,81,75,100,93,82,29.92,29.82,13,6,21,0.00
2012-7-29,90,83,79,85,81,77,100,94,80,29.89,29.80,13,3,21,0.00
2012-7-30,82,80,76,81,79,76,100,98,90,29.87,29.76,21,4,27,1.78
2012-7-31,86,79,71,82,78,71,100,95,85,29.87,29.79,12,4,19,0.02
2012-8-1,88,80,76,82,79,76,100,96,75,29.84,29.74,13,4,19,0.42
2012-8-2,92,83,78,84,79,72,100,88,60,29.87,29.76,21,4,24,0.00
2012-8-3,88,82,76,82,79,76,100,90,75,29.97,29.86,10,4,16,0.00
2012-8-4,88,83,79,83,80,76,100,91,81,30.08,29.94,16,5,31,0.00
2012-8-5,88,81,76,84,80,76,100,94,82,30.09,30.00,10,5,26,4.91
2012-8-6,88,83,79,82,80,79,100,93,78,30.05,29.93,9,3,14,0.00
2012-8-7,88,82,76,82,79,75,100,93,74,29.96,29.87,11,3,13,1.02
2012-8-8,83,78,75,81,78,75,100,98,88,29.94,29.85,13,2,17,0.17
2012-8-9,88,81,74,82,79,74,100,93,68,29.90,29.78,19,4,25,0.12
2012-8-10,87,81,74,81,78,74,100,92,69,29.86,29.77,17,6,22,0.02
2012-8-11,86,80,74,81,78,74,100,94,78,29.87,29.79,26,5,31,0.00
2012-8-12,87,81,76,82,80,76,100,96,78,29.91,29.83,13,5,24,0.00
2012-8-13,90,83,78,81,78,70,100,87,52,29.95,29.86,8,2,17,0.00
2012-8-14,91,83,77,80,78,72,100,84,58,29.91,29.80,14,6,18,0.00
2012-8-15,91,83,77,84,80,77,100,91,67,29.88,29.81,15,6,19,0.00
2012-8-16,88,81,76,82,78,74,100,92,75,29.93,29.84,14,5,19,0.00
2012-8-17,89,80,74,81,77,74,100,90,70,29.91,29.76,24,4,28,0.00
2012-8-18,90,81,76,82,79,76,100,93,64,29.80,29.71,12,4,13,0.00
2012-8-19,87,81,75,82,79,75,100,95,77,29.81,29.74,33,4,39,0.00
2012-8-20,81,40,75,79,-7,-100,100,52,87,29.83,29.75,18,-474,21,0.00
2012-8-21,-200,0,200,-100,-100,-100,0,0,100,0.00,40.00,0,-999,19,0.00
2012-8-22,-200,0,200,-100,-100,-100,0,0,100,0.00,40.00,0,-999,19,0.00
2012-8-23,-200,0,200,-100,-100,-100,0,0,100,0.00,40.00,0,-999,19,0.00
2012-8-24,-200,0,200,-100,-100,-100,0,0,100,0.00,40.00,0,-999,19,0.00
2012-8-25,-200,0,200,-100,-100,-100,0,0,100,0.00,40.00,0,-999,19,0.00
2012-8-26,-200,0,200,-100,-100,-100,0,0,100,0.00,40.00,0,-999,19,0.00
2012-9-28,83,78,76,76,75,73,100,90,73,29.93,29.90,6,2,14,0.00
2012-9-29,86,77,73,76,74,70,100,91,62,29.92,29.75,11,3,14,0.00
2012-9-30,77,75,72,77,74,71,100,97,89,29.79,29.72,13,3,22,0.00
2012-10-1,85,80,75,82,79,75,100,97,88,29.73,29.66,11,3,20,0.00
2012-10-2,84,81,78,82,80,78,100,97,88,29.90,29.66,13,6,25,0.00
2012-10-3,84,79,75,80,75,68,100,89,63,30.09,29.89,7,2,17,0.00
2012-10-4,82,77,74,78,76,73,100,95,85,30.12,30.05,11,4,14,0.00
2012-10-5,83,76,72,77,73,68,100,89,64,30.08,29.92,9,4,16,0.00
2012-10-6,83,77,72,76,74,69,100,90,64,29.93,29.79,8,2,14,0.00
2012-10-7,84,78,74,78,76,74,100,95,82,29.90,29.82,18,4,21,0.00
2012-10-8,76,65,56,76,64,56,100,99,96,29.99,29.89,28,11,32,0.00
2012-10-9,65,59,56,61,58,56,100,97,83,30.02,29.95,23,12,29,0.00
2012-10-10,75,64,57,67,61,56,100,90,65,30.03,29.90,18,7,22,0.01
2012-10-11,72,67,62,65,60,55,100,82,57,30.16,30.01,11,5,20,0.00
2012-10-12,79,70,64,66,62,58,91,77,56,30.14,30.03,4,1,11,0.00
2012-10-13,73,68,62,68,63,60,98,85,71,30.23,30.12,16,7,29,0.00
2012-10-14,80,71,63,72,68,63,100,90,64,30.17,29.94,6,2,13,0.00
2012-10-15,80,75,71,75,73,66,100,94,80,29.94,29.66,18,4,21,0.00
2012-10-16,73,66,59,66,56,49,88,70,51,29.85,29.73,18,6,25,0.00
2012-10-17,73,68,64,67,62,56,95,81,71,29.89,29.79,4,1,10,0.00
2012-10-18,77,72,68,74,71,67,100,96,85,29.80,29.69,7,2,18,0.00
2012-10-19,78,72,66,75,62,51,100,73,40,29.74,29.64,21,8,28,0.00
2012-10-20,75,67,58,61,54,49,81,64,41,29.83,29.70,14,6,22,0.00
2012-10-21,73,65,57,58,55,49,88,71,55,30.03,29.82,12,4,20,0.00
2012-10-22,73,66,59,61,55,47,86,70,47,30.11,30.02,7,3,16,0.00
2012-10-23,77,68,62,69,64,60,100,88,67,30.08,30.00,8,2,14,0.00
2012-10-24,80,72,67,72,69,67,100,92,70,30.06,29.97,8,2,17,0.00
2012-10-25,79,74,70,73,72,70,100,94,76,29.98,29.91,13,6,25,0.00
2012-10-26,78,72,69,72,69,67,100,91,75,29.91,29.65,20,11,31,0.00
2012-10-27,70,68,67,69,67,63,100,97,88,29.65,29.42,31,22,39,0.00
2012-10-28,71,66,64,64,61,58,91,83,66,29.50,29.43,33,23,40,0.00
2012-10-29,64,58,52,60,49,41,87,72,56,29.55,29.41,29,22,36,0.00
2012-10-30,59,52,47,45,38,32,74,60,44,29.64,29.44,24,13,33,0.00
2012-10-31,66,55,47,45,36,30,66,49,27,29.73,29.61,24,12,31,0.00
2012-11-1,64,56,49,43,38,32,71,53,34,29.82,29.69,22,11,29,0.00
2012-11-2,70,51,47,58,28,-100,80,55,45,29.88,29.75,18,-112,25,0.47
2012-11-3,66,60,54,61,50,41,97,70,43,30.01,29.83,12,4,14,0.00
2012-11-4,76,67,62,69,65,61,100,93,67,29.94,29.79,24,4,33,0.16
2012-11-5,66,59,52,63,55,46,100,86,47,29.94,29.80,13,5,16,0.00
2012-11-6,57,53,47,54,50,45,100,90,79,29.92,29.76,20,8,22,0.03
2012-11-7,56,49,45,49,46,42,100,89,71,29.87,29.74,19,13,22,0.00
2012-11-8,64,53,44,50,45,37,100,77,44,30.03,29.87,20,10,22,0.00
2012-11-9,67,56,50,51,45,32,94,67,31,30.18,30.03,11,4,12,0.00
2012-11-10,71,59,52,58,53,42,100,84,38,30.28,30.17,5,1,8,0.00
2012-11-11,74,64,57,67,63,56,100,95,78,30.33,30.25,7,2,10,0.00
2012-11-12,79,69,63,71,66,63,100,94,70,30.25,30.10,9,1,17,0.00
2012-11-13,78,64,54,70,63,54,100,98,76,30.18,30.04,20,6,24,0.16
2012-11-14,54,51,48,54,50,48,100,97,89,30.27,30.15,14,9,20,0.01
2012-11-15,53,50,46,53,50,46,100,100,100,30.16,30.07,31,14,36,0.31
2012-11-16,56,53,50,55,52,49,100,96,84,30.20,30.11,18,7,24,0.00
2012-11-17,56,52,46,53,49,43,97,90,82,30.25,30.18,14,9,19,0.00
2012-11-18,56,54,52,55,54,51,100,99,89,30.19,30.05,29,20,34,0.30
2012-11-19,60,57,54,59,56,54,100,97,92,30.11,30.01,26,16,30,0.00
2012-11-20,60,55,50,59,54,50,100,98,89,30.05,29.94,20,8,21,0.00
2012-11-21,61,55,50,55,51,46,100,86,63,30.02,29.95,21,9,22,0.00
2012-11-22,61,54,47,50,44,37,93,72,50,30.10,30.01,23,12,26,0.00
2012-11-23,68,56,44,55,48,39,100,78,51,30.08,29.85,11,4,14,0.00
2012-11-24,60,55,48,53,46,40,95,74,49,30.00,29.83,19,9,22,0.00
2012-11-25,56,49,40,52,43,33,100,80,62,30.10,29.99,6,3,12,0.00
2012-11-26,66,54,46,52,46,36,100,74,39,30.16,30.04,7,3,10,0.00
2012-11-27,63,55,51,58,54,49,100,96,66,30.11,30.01,21,1,24,0.05
2012-11-28,59,53,47,54,50,42,100,88,67,30.29,30.06,14,6,19,0.00
2012-11-29,60,52,45,52,46,42,95,84,68,30.36,30.27,9,3,14,0.00
2012-11-30,66,56,49,58,53,48,100,92,70,30.30,30.20,5,2,8,0.00
2012-12-1,65,60,55,61,58,55,100,96,82,30.28,30.20,4,2,11,0.00
2012-12-2,70,62,58,65,62,58,100,97,86,30.28,30.19,5,0,8,0.00
2012-12-3,75,64,57,70,63,57,100,98,78,30.24,30.16,5,2,11,0.01
2012-12-4,74,65,60,68,64,60,100,96,72,30.25,30.15,11,2,14,0.00
2012-12-5,73,63,57,66,61,57,100,93,73,30.15,30.01,10,2,10,0.00
2012-12-6,61,58,54,61,57,51,100,95,88,30.09,30.02,14,6,22,0.00
2012-12-7,61,57,54,61,56,51,100,99,90,30.02,29.88,18,8,19,0.00
2012-12-8,69,61,55,64,60,55,100,97,79,30.01,29.91,12,4,14,0.00
2012-12-9,74,66,60,70,65,60,100,98,86,30.05,29.89,4,1,8,0.00
2012-12-10,71,68,64,71,67,-100,100,99,92,29.88,29.70,10,4,19,0.00
2012-12-11,73,68,62,71,62,-100,100,96,92,29.98,29.70,13,5,17,0.00
2012-12-12,62,61,58,62,61,58,100,100,100,30.07,29.96,13,6,16,0.01
2012-12-21,52,48,45,40,33,28,62,56,50,29.90,29.76,35,20,40,0.01
2012-12-22,57,47,39,34,31,26,70,54,32,30.08,29.89,29,13,35,0.00
2012-12-23,60,49,39,49,37,29,84,64,36,30.12,30.00,12,4,16,0.00
2012-12-24,63,56,50,59,50,41,100,79,50,30.03,29.84,12,3,17,0.03
2012-12-25,60,57,55,59,57,55,100,99,92,30.00,29.84,16,3,20,0.24
2012-12-26,68,60,44,68,56,38,100,89,62,29.83,29.45,32,13,39,0.40
2012-12-27,56,46,39,45,40,35,91,79,61,29.98,29.73,30,8,30,0.00
2012-12-28,57,49,42,54,48,41,100,94,84,30.06,29.84,6,2,7,0.00
2012-12-29,68,55,45,68,52,39,100,91,74,29.97,29.59,31,17,36,0.27
2012-12-30,51,45,39,40,36,31,90,71,46,30.34,29.97,28,13,33,0.05
2012-12-31,59,49,40,52,43,34,100,80,54,30.34,30.11,5,1,8,0.01
2013-1-1,66,58,52,63,57,51,100,95,82,30.11,29.87,8,3,14,0.01